sensor_id;sensor_type;location;lat;lon;timestamp;temperature;humidity
19870;DHT22;10097;50.862;4.696;2023-02-13T00:01:10;5.10;99.90
19870;DHT22;10097;50.862;4.696;2023-02-13T00:03:35;5.10;99.90
19870;DHT22;10097;50.862;4.696;2023-02-13T00:06:01;5.10;99.90
19870;DHT22;10097;50.862;4.696;2023-02-13T00:08:27;5.10;99.90
19870;DHT22;10097;50.862;4.696;2023-02-13T00:10:52;5.10;99.90
19870;DHT22;10097;50.862;4.696;2023-02-13T00:13:18;5.00;99.90
19870;DHT22;10097;50.862;4.696;2023-02-13T00:15:43;5.00;99.90
19870;DHT22;10097;50.862;4.696;2023-02-13T00:18:09;5.00;99.90
19870;DHT22;10097;50.862;4.696;2023-02-13T00:20:35;4.90;99.90
19870;DHT22;10097;50.862;4.696;2023-02-13T00:23:01;4.90;99.90
19870;DHT22;10097;50.862;4.696;2023-02-13T00:25:27;4.90;99.90
19870;DHT22;10097;50.862;4.696;2023-02-13T00:27:52;4.80;99.90
19870;DHT22;10097;50.862;4.696;2023-02-13T00:30:20;4.80;99.90
19870;DHT22;10097;50.862;4.696;2023-02-13T00:32:46;4.80;99.90
19870;DHT22;10097;50.862;4.696;2023-02-13T00:35:11;4.80;99.90
19870;DHT22;10097;50.862;4.696;2023-02-13T00:37:37;4.80;99.90
19870;DHT22;10097;50.862;4.696;2023-02-13T00:40:03;4.70;99.90
19870;DHT22;10097;50.862;4.696;2023-02-13T00:42:29;4.70;99.90
19870;DHT22;10097;50.862;4.696;2023-02-13T00:44:54;4.70;99.90
19870;DHT22;10097;50.862;4.696;2023-02-13T00:47:27;4.70;99.90
19870;DHT22;10097;50.862;4.696;2023-02-13T00:49:55;4.60;99.90
19870;DHT22;10097;50.862;4.696;2023-02-13T00:52:21;4.60;99.90
19870;DHT22;10097;50.862;4.696;2023-02-13T00:54:46;4.60;99.90
19870;DHT22;10097;50.862;4.696;2023-02-13T00:57:12;4.60;99.90
19870;DHT22;10097;50.862;4.696;2023-02-13T00:59:38;4.50;99.90
19870;DHT22;10097;50.862;4.696;2023-02-13T01:02:03;4.50;99.90
19870;DHT22;10097;50.862;4.696;2023-02-13T01:04:29;4.50;99.90
19870;DHT22;10097;50.862;4.696;2023-02-13T01:06:55;4.50;99.90
19870;DHT22;10097;50.862;4.696;2023-02-13T01:09:20;4.40;99.90
19870;DHT22;10097;50.862;4.696;2023-02-13T01:11:46;4.40;99.90
19870;DHT22;10097;50.862;4.696;2023-02-13T01:14:13;4.40;99.90
19870;DHT22;10097;50.862;4.696;2023-02-13T01:16:38;4.40;99.90
19870;DHT22;10097;50.862;4.696;2023-02-13T01:19:04;4.40;99.90
19870;DHT22;10097;50.862;4.696;2023-02-13T01:21:30;4.30;99.90
19870;DHT22;10097;50.862;4.696;2023-02-13T01:23:56;4.30;99.90
19870;DHT22;10097;50.862;4.696;2023-02-13T01:26:24;4.30;99.90
19870;DHT22;10097;50.862;4.696;2023-02-13T01:28:53;4.20;99.90
19870;DHT22;10097;50.862;4.696;2023-02-13T01:31:19;4.20;99.90
19870;DHT22;10097;50.862;4.696;2023-02-13T01:33:45;4.20;99.90
19870;DHT22;10097;50.862;4.696;2023-02-13T01:36:11;4.20;99.90
19870;DHT22;10097;50.862;4.696;2023-02-13T01:38:39;4.20;99.90
19870;DHT22;10097;50.862;4.696;2023-02-13T01:41:05;4.20;99.90
19870;DHT22;10097;50.862;4.696;2023-02-13T01:43:58;4.10;99.90
19870;DHT22;10097;50.862;4.696;2023-02-13T01:46:36;4.10;99.90
19870;DHT22;10097;50.862;4.696;2023-02-13T01:49:23;4.10;99.90
19870;DHT22;10097;50.862;4.696;2023-02-13T01:51:53;4.10;99.90
19870;DHT22;10097;50.862;4.696;2023-02-13T01:54:24;4.10;99.90
19870;DHT22;10097;50.862;4.696;2023-02-13T01:56:59;4.20;99.90
19870;DHT22;10097;50.862;4.696;2023-02-13T01:59:32;4.20;99.90
19870;DHT22;10097;50.862;4.696;2023-02-13T02:01:58;4.30;99.90
19870;DHT22;10097;50.862;4.696;2023-02-13T02:04:29;4.30;99.90
19870;DHT22;10097;50.862;4.696;2023-02-13T02:06:59;4.40;99.90
19870;DHT22;10097;50.862;4.696;2023-02-13T02:09:29;4.50;99.90
19870;DHT22;10097;50.862;4.696;2023-02-13T02:12:04;4.50;99.90
19870;DHT22;10097;50.862;4.696;2023-02-13T02:14:31;4.60;99.90
19870;DHT22;10097;50.862;4.696;2023-02-13T02:16:57;4.60;99.90
19870;DHT22;10097;50.862;4.696;2023-02-13T02:25:15;4.80;99.90
19870;DHT22;10097;50.862;4.696;2023-02-13T02:37:03;5.10;99.90
19870;DHT22;10097;50.862;4.696;2023-02-13T02:39:42;5.00;99.90
19870;DHT22;10097;50.862;4.696;2023-02-13T02:44:48;5.00;99.90
19870;DHT22;10097;50.862;4.696;2023-02-13T02:58:32;5.00;99.90
19870;DHT22;10097;50.862;4.696;2023-02-13T03:01:22;4.90;99.90
19870;DHT22;10097;50.862;4.696;2023-02-13T03:07:10;5.00;99.90
19870;DHT22;10097;50.862;4.696;2023-02-13T03:09:41;4.90;99.90
19870;DHT22;10097;50.862;4.696;2023-02-13T03:12:34;4.90;99.90
19870;DHT22;10097;50.862;4.696;2023-02-13T03:15:20;5.00;99.90
19870;DHT22;10097;50.862;4.696;2023-02-13T03:17:46;4.90;99.90
19870;DHT22;10097;50.862;4.696;2023-02-13T03:20:41;4.80;99.90
19870;DHT22;10097;50.862;4.696;2023-02-13T03:30:00;4.80;99.90
19870;DHT22;10097;50.862;4.696;2023-02-13T03:32:34;4.80;99.90
19870;DHT22;10097;50.862;4.696;2023-02-13T03:38:47;4.70;99.90
19870;DHT22;10097;50.862;4.696;2023-02-13T03:41:21;4.70;99.90
19870;DHT22;10097;50.862;4.696;2023-02-13T03:43:50;4.70;99.90
19870;DHT22;10097;50.862;4.696;2023-02-13T03:46:19;4.60;99.90
19870;DHT22;10097;50.862;4.696;2023-02-13T03:48:45;4.70;99.90
19870;DHT22;10097;50.862;4.696;2023-02-13T03:57:28;4.70;99.90
19870;DHT22;10097;50.862;4.696;2023-02-13T04:00:20;4.60;99.90
19870;DHT22;10097;50.862;4.696;2023-02-13T04:05:46;4.60;99.90
19870;DHT22;10097;50.862;4.696;2023-02-13T04:08:13;4.50;99.90
19870;DHT22;10097;50.862;4.696;2023-02-13T04:10:56;4.50;99.90
19870;DHT22;10097;50.862;4.696;2023-02-13T04:13:46;4.50;99.90
19870;DHT22;10097;50.862;4.696;2023-02-13T04:16:22;4.40;99.90
19870;DHT22;10097;50.862;4.696;2023-02-13T04:18:52;4.30;99.90
19870;DHT22;10097;50.862;4.696;2023-02-13T04:21:19;4.10;99.90
19870;DHT22;10097;50.862;4.696;2023-02-13T04:23:44;4.10;99.90
19870;DHT22;10097;50.862;4.696;2023-02-13T04:26:18;4.00;99.90
19870;DHT22;10097;50.862;4.696;2023-02-13T04:28:44;4.00;99.90
19870;DHT22;10097;50.862;4.696;2023-02-13T04:31:09;4.00;99.90
19870;DHT22;10097;50.862;4.696;2023-02-13T04:33:35;4.00;99.90
19870;DHT22;10097;50.862;4.696;2023-02-13T04:36:01;3.90;99.90
19870;DHT22;10097;50.862;4.696;2023-02-13T04:38:26;3.80;99.90
19870;DHT22;10097;50.862;4.696;2023-02-13T04:40:52;3.70;99.90
19870;DHT22;10097;50.862;4.696;2023-02-13T04:43:17;3.70;99.90
19870;DHT22;10097;50.862;4.696;2023-02-13T04:45:49;3.70;99.90
19870;DHT22;10097;50.862;4.696;2023-02-13T04:48:15;3.60;99.90
19870;DHT22;10097;50.862;4.696;2023-02-13T04:50:41;3.50;99.90
19870;DHT22;10097;50.862;4.696;2023-02-13T04:53:06;3.50;99.90
19870;DHT22;10097;50.862;4.696;2023-02-13T04:55:32;3.40;99.90
19870;DHT22;10097;50.862;4.696;2023-02-13T04:57:58;3.40;99.90
19870;DHT22;10097;50.862;4.696;2023-02-13T05:00:26;3.30;99.90
19870;DHT22;10097;50.862;4.696;2023-02-13T05:02:52;3.20;99.90
19870;DHT22;10097;50.862;4.696;2023-02-13T05:05:18;3.10;99.90
19870;DHT22;10097;50.862;4.696;2023-02-13T05:07:44;3.10;99.90
19870;DHT22;10097;50.862;4.696;2023-02-13T05:10:11;3.10;99.90
19870;DHT22;10097;50.862;4.696;2023-02-13T05:12:37;3.00;99.90
19870;DHT22;10097;50.862;4.696;2023-02-13T05:15:04;3.00;99.90
19870;DHT22;10097;50.862;4.696;2023-02-13T05:17:30;2.90;99.90
19870;DHT22;10097;50.862;4.696;2023-02-13T05:19:55;2.80;99.90
19870;DHT22;10097;50.862;4.696;2023-02-13T05:22:23;2.80;99.90
19870;DHT22;10097;50.862;4.696;2023-02-13T05:25:07;2.80;99.90
19870;DHT22;10097;50.862;4.696;2023-02-13T05:27:33;2.80;99.90
19870;DHT22;10097;50.862;4.696;2023-02-13T05:29:58;2.70;99.90
19870;DHT22;10097;50.862;4.696;2023-02-13T05:32:24;2.70;99.90
19870;DHT22;10097;50.862;4.696;2023-02-13T05:34:50;2.70;99.90
19870;DHT22;10097;50.862;4.696;2023-02-13T05:37:15;2.70;99.90
19870;DHT22;10097;50.862;4.696;2023-02-13T05:39:41;2.70;99.90
19870;DHT22;10097;50.862;4.696;2023-02-13T05:42:07;2.60;99.90
19870;DHT22;10097;50.862;4.696;2023-02-13T05:44:33;2.60;99.90
19870;DHT22;10097;50.862;4.696;2023-02-13T05:46:59;2.50;99.90
19870;DHT22;10097;50.862;4.696;2023-02-13T05:49:24;2.50;99.90
19870;DHT22;10097;50.862;4.696;2023-02-13T05:51:50;2.50;99.90
19870;DHT22;10097;50.862;4.696;2023-02-13T05:54:17;2.50;99.90
19870;DHT22;10097;50.862;4.696;2023-02-13T05:56:42;2.40;99.90
19870;DHT22;10097;50.862;4.696;2023-02-13T05:59:08;2.50;99.90
19870;DHT22;10097;50.862;4.696;2023-02-13T06:01:34;2.40;99.90
19870;DHT22;10097;50.862;4.696;2023-02-13T06:04:00;2.40;99.90
19870;DHT22;10097;50.862;4.696;2023-02-13T06:06:26;2.30;99.90
19870;DHT22;10097;50.862;4.696;2023-02-13T06:08:51;2.30;99.90
19870;DHT22;10097;50.862;4.696;2023-02-13T06:11:17;2.30;99.90
19870;DHT22;10097;50.862;4.696;2023-02-13T06:13:43;2.30;99.90
19870;DHT22;10097;50.862;4.696;2023-02-13T06:16:10;2.30;99.90
19870;DHT22;10097;50.862;4.696;2023-02-13T06:18:36;2.30;99.90
19870;DHT22;10097;50.862;4.696;2023-02-13T06:21:02;2.20;99.90
19870;DHT22;10097;50.862;4.696;2023-02-13T06:23:28;2.20;99.90
19870;DHT22;10097;50.862;4.696;2023-02-13T06:25:54;2.20;99.90
19870;DHT22;10097;50.862;4.696;2023-02-13T06:28:20;2.20;99.90
19870;DHT22;10097;50.862;4.696;2023-02-13T06:30:46;2.20;99.90
19870;DHT22;10097;50.862;4.696;2023-02-13T06:33:13;2.10;99.90
19870;DHT22;10097;50.862;4.696;2023-02-13T06:35:39;2.10;99.90
19870;DHT22;10097;50.862;4.696;2023-02-13T06:38:04;2.10;99.90
19870;DHT22;10097;50.862;4.696;2023-02-13T06:40:30;2.10;99.90
19870;DHT22;10097;50.862;4.696;2023-02-13T06:42:56;2.00;99.90
19870;DHT22;10097;50.862;4.696;2023-02-13T06:45:21;2.00;99.90
19870;DHT22;10097;50.862;4.696;2023-02-13T06:47:47;2.00;99.90
19870;DHT22;10097;50.862;4.696;2023-02-13T06:50:14;2.00;99.90
19870;DHT22;10097;50.862;4.696;2023-02-13T06:52:49;1.90;99.90
19870;DHT22;10097;50.862;4.696;2023-02-13T06:55:15;1.90;99.90
19870;DHT22;10097;50.862;4.696;2023-02-13T06:57:46;1.90;99.90
19870;DHT22;10097;50.862;4.696;2023-02-13T07:00:13;1.90;99.90
19870;DHT22;10097;50.862;4.696;2023-02-13T07:02:40;1.90;99.90
19870;DHT22;10097;50.862;4.696;2023-02-13T07:05:06;1.90;99.90
19870;DHT22;10097;50.862;4.696;2023-02-13T07:07:33;1.90;99.90
19870;DHT22;10097;50.862;4.696;2023-02-13T07:10:00;1.90;99.90
19870;DHT22;10097;50.862;4.696;2023-02-13T07:12:25;1.90;99.90
19870;DHT22;10097;50.862;4.696;2023-02-13T07:14:51;1.90;99.90
19870;DHT22;10097;50.862;4.696;2023-02-13T07:17:17;2.00;99.90
19870;DHT22;10097;50.862;4.696;2023-02-13T07:19:42;2.00;99.90
19870;DHT22;10097;50.862;4.696;2023-02-13T07:22:08;1.90;99.90
19870;DHT22;10097;50.862;4.696;2023-02-13T07:24:34;2.00;99.90
19870;DHT22;10097;50.862;4.696;2023-02-13T07:27:00;2.00;99.90
19870;DHT22;10097;50.862;4.696;2023-02-13T07:29:26;2.00;99.90
19870;DHT22;10097;50.862;4.696;2023-02-13T07:31:52;2.10;99.90
19870;DHT22;10097;50.862;4.696;2023-02-13T07:34:17;2.10;99.90
19870;DHT22;10097;50.862;4.696;2023-02-13T07:36:43;2.10;99.90
19870;DHT22;10097;50.862;4.696;2023-02-13T07:39:08;2.20;99.90
19870;DHT22;10097;50.862;4.696;2023-02-13T07:41:34;2.20;99.90
19870;DHT22;10097;50.862;4.696;2023-02-13T07:44:00;2.30;99.90
19870;DHT22;10097;50.862;4.696;2023-02-13T07:46:25;2.30;99.90
19870;DHT22;10097;50.862;4.696;2023-02-13T07:48:52;2.30;99.90
19870;DHT22;10097;50.862;4.696;2023-02-13T07:51:18;2.40;99.90
19870;DHT22;10097;50.862;4.696;2023-02-13T07:53:43;2.50;99.90
19870;DHT22;10097;50.862;4.696;2023-02-13T07:56:09;2.60;99.90
19870;DHT22;10097;50.862;4.696;2023-02-13T07:58:37;2.60;99.90
19870;DHT22;10097;50.862;4.696;2023-02-13T08:01:08;2.70;99.90
19870;DHT22;10097;50.862;4.696;2023-02-13T08:03:34;2.70;99.90
19870;DHT22;10097;50.862;4.696;2023-02-13T08:06:00;2.70;99.90
19870;DHT22;10097;50.862;4.696;2023-02-13T08:08:26;2.80;99.90
19870;DHT22;10097;50.862;4.696;2023-02-13T08:10:52;2.70;99.90
19870;DHT22;10097;50.862;4.696;2023-02-13T08:13:36;2.80;99.90
19870;DHT22;10097;50.862;4.696;2023-02-13T08:16:02;2.90;99.90
19870;DHT22;10097;50.862;4.696;2023-02-13T08:18:28;2.90;99.90
19870;DHT22;10097;50.862;4.696;2023-02-13T08:20:53;3.00;99.90
19870;DHT22;10097;50.862;4.696;2023-02-13T08:23:19;3.00;99.90
19870;DHT22;10097;50.862;4.696;2023-02-13T08:25:44;3.10;99.90
19870;DHT22;10097;50.862;4.696;2023-02-13T08:28:13;3.20;99.90
19870;DHT22;10097;50.862;4.696;2023-02-13T08:30:39;3.30;99.90
19870;DHT22;10097;50.862;4.696;2023-02-13T08:33:05;3.40;99.90
19870;DHT22;10097;50.862;4.696;2023-02-13T08:35:30;3.50;99.90
19870;DHT22;10097;50.862;4.696;2023-02-13T08:38:00;3.60;99.90
19870;DHT22;10097;50.862;4.696;2023-02-13T08:40:26;3.60;99.90
19870;DHT22;10097;50.862;4.696;2023-02-13T08:42:51;3.70;99.90
19870;DHT22;10097;50.862;4.696;2023-02-13T08:45:17;3.90;99.90
19870;DHT22;10097;50.862;4.696;2023-02-13T08:47:43;4.00;99.90
19870;DHT22;10097;50.862;4.696;2023-02-13T08:50:11;4.00;99.90
19870;DHT22;10097;50.862;4.696;2023-02-13T08:52:37;4.10;99.90
19870;DHT22;10097;50.862;4.696;2023-02-13T08:55:02;4.20;99.90
19870;DHT22;10097;50.862;4.696;2023-02-13T08:57:28;4.40;99.90
19870;DHT22;10097;50.862;4.696;2023-02-13T08:59:55;4.50;99.90
19870;DHT22;10097;50.862;4.696;2023-02-13T09:02:21;4.60;99.90
19870;DHT22;10097;50.862;4.696;2023-02-13T09:04:46;4.70;99.90
19870;DHT22;10097;50.862;4.696;2023-02-13T09:07:12;4.80;99.90
19870;DHT22;10097;50.862;4.696;2023-02-13T09:09:37;4.90;99.90
19870;DHT22;10097;50.862;4.696;2023-02-13T09:12:03;5.10;99.90
19870;DHT22;10097;50.862;4.696;2023-02-13T09:14:29;5.10;99.90
19870;DHT22;10097;50.862;4.696;2023-02-13T09:16:55;5.10;99.90
19870;DHT22;10097;50.862;4.696;2023-02-13T09:19:21;5.30;99.90
19870;DHT22;10097;50.862;4.696;2023-02-13T09:21:47;5.40;99.90
19870;DHT22;10097;50.862;4.696;2023-02-13T09:24:12;5.50;99.90
19870;DHT22;10097;50.862;4.696;2023-02-13T09:26:38;5.60;99.90
19870;DHT22;10097;50.862;4.696;2023-02-13T09:29:03;5.60;99.90
19870;DHT22;10097;50.862;4.696;2023-02-13T09:31:29;5.60;99.90
19870;DHT22;10097;50.862;4.696;2023-02-13T09:33:55;5.80;99.90
19870;DHT22;10097;50.862;4.696;2023-02-13T09:36:23;6.00;99.90
19870;DHT22;10097;50.862;4.696;2023-02-13T09:38:54;6.10;99.90
19870;DHT22;10097;50.862;4.696;2023-02-13T09:41:24;6.30;99.90
19870;DHT22;10097;50.862;4.696;2023-02-13T09:46:34;6.40;99.90
19870;DHT22;10097;50.862;4.696;2023-02-13T09:49:28;6.50;99.90
19870;DHT22;10097;50.862;4.696;2023-02-13T09:51:56;6.60;99.90
19870;DHT22;10097;50.862;4.696;2023-02-13T09:54:22;6.60;99.90
19870;DHT22;10097;50.862;4.696;2023-02-13T09:57:02;6.70;99.90
19870;DHT22;10097;50.862;4.696;2023-02-13T10:10:40;7.50;99.90
19870;DHT22;10097;50.862;4.696;2023-02-13T10:16:18;7.70;99.90
19870;DHT22;10097;50.862;4.696;2023-02-13T10:21:14;7.80;99.90
19870;DHT22;10097;50.862;4.696;2023-02-13T10:24:01;8.00;99.90
19870;DHT22;10097;50.862;4.696;2023-02-13T10:26:34;8.20;99.90
19870;DHT22;10097;50.862;4.696;2023-02-13T10:29:38;8.40;99.90
19870;DHT22;10097;50.862;4.696;2023-02-13T10:35:28;8.60;99.90
19870;DHT22;10097;50.862;4.696;2023-02-13T10:37:56;8.80;99.90
19870;DHT22;10097;50.862;4.696;2023-02-13T10:40:31;8.90;99.90
19870;DHT22;10097;50.862;4.696;2023-02-13T10:43:04;9.10;99.90
19870;DHT22;10097;50.862;4.696;2023-02-13T10:45:54;9.20;99.90
19870;DHT22;10097;50.862;4.696;2023-02-13T10:49:03;9.40;99.90
19870;DHT22;10097;50.862;4.696;2023-02-13T10:57:28;9.70;99.90
19870;DHT22;10097;50.862;4.696;2023-02-13T11:02:43;9.80;99.90
19870;DHT22;10097;50.862;4.696;2023-02-13T11:05:17;9.90;99.90
19870;DHT22;10097;50.862;4.696;2023-02-13T11:07:44;10.10;99.90
19870;DHT22;10097;50.862;4.696;2023-02-13T11:10:22;10.30;99.90
19870;DHT22;10097;50.862;4.696;2023-02-13T11:12:48;10.40;99.90
19870;DHT22;10097;50.862;4.696;2023-02-13T11:15:21;10.50;99.90
19870;DHT22;10097;50.862;4.696;2023-02-13T11:17:50;10.70;99.90
19870;DHT22;10097;50.862;4.696;2023-02-13T11:20:45;10.70;99.90
19870;DHT22;10097;50.862;4.696;2023-02-13T11:23:33;10.80;99.90
19870;DHT22;10097;50.862;4.696;2023-02-13T11:28:30;10.90;99.90
19870;DHT22;10097;50.862;4.696;2023-02-13T11:33:42;11.30;99.90
19870;DHT22;10097;50.862;4.696;2023-02-13T11:36:16;11.50;99.90
19870;DHT22;10097;50.862;4.696;2023-02-13T11:39:06;11.60;99.90
19870;DHT22;10097;50.862;4.696;2023-02-13T11:41:43;11.60;99.90
19870;DHT22;10097;50.862;4.696;2023-02-13T11:44:35;11.60;99.90
19870;DHT22;10097;50.862;4.696;2023-02-13T11:47:01;11.70;99.90
19870;DHT22;10097;50.862;4.696;2023-02-13T11:49:32;11.90;99.90
19870;DHT22;10097;50.862;4.696;2023-02-13T11:52:13;12.00;99.90
19870;DHT22;10097;50.862;4.696;2023-02-13T11:54:55;12.20;99.90
19870;DHT22;10097;50.862;4.696;2023-02-13T11:57:35;12.30;99.90
19870;DHT22;10097;50.862;4.696;2023-02-13T12:02:49;12.70;99.90
19870;DHT22;10097;50.862;4.696;2023-02-13T12:05:26;12.80;99.90
19870;DHT22;10097;50.862;4.696;2023-02-13T12:07:58;12.70;99.90
19870;DHT22;10097;50.862;4.696;2023-02-13T12:15:22;13.00;99.90
19870;DHT22;10097;50.862;4.696;2023-02-13T12:20:24;13.20;99.90
19870;DHT22;10097;50.862;4.696;2023-02-13T12:22:59;13.30;99.90
19870;DHT22;10097;50.862;4.696;2023-02-13T12:28:19;13.80;99.90
19870;DHT22;10097;50.862;4.696;2023-02-13T12:32:12;14.10;99.90
19870;DHT22;10097;50.862;4.696;2023-02-13T12:43:13;14.90;99.90
19870;DHT22;10097;50.862;4.696;2023-02-13T12:45:50;15.30;99.90
19870;DHT22;10097;50.862;4.696;2023-02-13T12:48:54;15.60;99.90
19870;DHT22;10097;50.862;4.696;2023-02-13T12:53:53;15.80;99.90
19870;DHT22;10097;50.862;4.696;2023-02-13T13:08:08;15.50;99.90
19870;DHT22;10097;50.862;4.696;2023-02-13T13:19:12;16.40;99.90
19870;DHT22;10097;50.862;4.696;2023-02-13T13:21:47;16.50;99.90
19870;DHT22;10097;50.862;4.696;2023-02-13T13:27:15;16.50;99.90
19870;DHT22;10097;50.862;4.696;2023-02-13T13:30:12;16.40;99.90
19870;DHT22;10097;50.862;4.696;2023-02-13T13:32:37;16.50;99.90
19870;DHT22;10097;50.862;4.696;2023-02-13T13:35:04;16.30;99.90
19870;DHT22;10097;50.862;4.696;2023-02-13T13:37:39;16.40;99.90
19870;DHT22;10097;50.862;4.696;2023-02-13T13:50:45;16.90;99.90
19870;DHT22;10097;50.862;4.696;2023-02-13T13:53:16;16.60;99.90
19870;DHT22;10097;50.862;4.696;2023-02-13T13:58:30;16.90;99.90
19870;DHT22;10097;50.862;4.696;2023-02-13T14:03:45;17.20;99.90
19870;DHT22;10097;50.862;4.696;2023-02-13T14:06:15;17.30;99.90
19870;DHT22;10097;50.862;4.696;2023-02-13T14:11:34;17.30;99.90
19870;DHT22;10097;50.862;4.696;2023-02-13T14:14:42;17.30;99.90
19870;DHT22;10097;50.862;4.696;2023-02-13T14:16:47;17.30;99.90
19870;DHT22;10097;50.862;4.696;2023-02-13T14:19:28;17.60;99.90
19870;DHT22;10097;50.862;4.696;2023-02-13T14:24:57;17.80;99.90
19870;DHT22;10097;50.862;4.696;2023-02-13T14:27:36;18.00;99.90
19870;DHT22;10097;50.862;4.696;2023-02-13T14:30:04;18.00;99.90
19870;DHT22;10097;50.862;4.696;2023-02-13T14:32:38;18.20;99.90
19870;DHT22;10097;50.862;4.696;2023-02-13T14:35:17;18.30;99.90
19870;DHT22;10097;50.862;4.696;2023-02-13T14:37:53;18.50;99.90
19870;DHT22;10097;50.862;4.696;2023-02-13T14:48:31;18.50;99.90
19870;DHT22;10097;50.862;4.696;2023-02-13T14:50:58;18.40;99.90
19870;DHT22;10097;50.862;4.696;2023-02-13T14:53:44;18.50;99.90
19870;DHT22;10097;50.862;4.696;2023-02-13T14:56:13;18.60;99.90
19870;DHT22;10097;50.862;4.696;2023-02-13T14:59:15;18.90;99.90
19870;DHT22;10097;50.862;4.696;2023-02-13T15:02:05;19.10;99.90
19870;DHT22;10097;50.862;4.696;2023-02-13T15:04:39;19.20;99.90
19870;DHT22;10097;50.862;4.696;2023-02-13T15:07:13;19.10;99.90
19870;DHT22;10097;50.862;4.696;2023-02-13T15:09:46;19.10;99.90
19870;DHT22;10097;50.862;4.696;2023-02-13T15:12:31;19.40;99.90
19870;DHT22;10097;50.862;4.696;2023-02-13T15:14:58;19.40;99.90
19870;DHT22;10097;50.862;4.696;2023-02-13T15:17:32;19.50;99.90
19870;DHT22;10097;50.862;4.696;2023-02-13T15:20:27;19.50;99.90
19870;DHT22;10097;50.862;4.696;2023-02-13T15:22:52;19.50;99.90
19870;DHT22;10097;50.862;4.696;2023-02-13T15:25:32;19.40;99.90
19870;DHT22;10097;50.862;4.696;2023-02-13T15:27:59;19.30;99.90
19870;DHT22;10097;50.862;4.696;2023-02-13T15:30:27;19.20;99.90
19870;DHT22;10097;50.862;4.696;2023-02-13T15:32:58;19.10;99.90
19870;DHT22;10097;50.862;4.696;2023-02-13T15:35:33;18.90;99.90
19870;DHT22;10097;50.862;4.696;2023-02-13T15:38:15;18.60;99.90
19870;DHT22;10097;50.862;4.696;2023-02-13T15:40:42;18.40;99.90
19870;DHT22;10097;50.862;4.696;2023-02-13T15:43:21;18.30;99.90
19870;DHT22;10097;50.862;4.696;2023-02-13T15:45:48;18.20;99.90
19870;DHT22;10097;50.862;4.696;2023-02-13T15:48:15;17.90;99.90
19870;DHT22;10097;50.862;4.696;2023-02-13T15:50:41;17.70;99.90
19870;DHT22;10097;50.862;4.696;2023-02-13T15:53:13;17.40;99.90
19870;DHT22;10097;50.862;4.696;2023-02-13T15:55:39;17.10;99.90
19870;DHT22;10097;50.862;4.696;2023-02-13T15:58:08;16.90;99.90
19870;DHT22;10097;50.862;4.696;2023-02-13T16:00:40;16.70;99.90
19870;DHT22;10097;50.862;4.696;2023-02-13T16:03:14;16.50;99.90
19870;DHT22;10097;50.862;4.696;2023-02-13T16:05:40;16.20;99.90
19870;DHT22;10097;50.862;4.696;2023-02-13T16:08:35;16.00;99.90
19870;DHT22;10097;50.862;4.696;2023-02-13T16:11:36;15.70;99.90
19870;DHT22;10097;50.862;4.696;2023-02-13T16:14:11;15.50;99.90
19870;DHT22;10097;50.862;4.696;2023-02-13T16:19:34;15.30;99.90
19870;DHT22;10097;50.862;4.696;2023-02-13T16:23:05;15.10;99.90
19870;DHT22;10097;50.862;4.696;2023-02-13T16:25:15;14.80;99.90
19870;DHT22;10097;50.862;4.696;2023-02-13T16:27:45;14.60;99.90
19870;DHT22;10097;50.862;4.696;2023-02-13T16:35:44;13.90;99.90
19870;DHT22;10097;50.862;4.696;2023-02-13T16:43:49;13.40;99.90
19870;DHT22;10097;50.862;4.696;2023-02-13T16:51:48;13.00;99.90
19870;DHT22;10097;50.862;4.696;2023-02-13T16:54:46;12.80;99.90
19870;DHT22;10097;50.862;4.696;2023-02-13T17:12:42;11.70;99.90
19870;DHT22;10097;50.862;4.696;2023-02-13T17:15:18;11.50;99.90
19870;DHT22;10097;50.862;4.696;2023-02-13T17:17:45;11.50;99.90
19870;DHT22;10097;50.862;4.696;2023-02-13T17:20:23;11.40;99.90
19870;DHT22;10097;50.862;4.696;2023-02-13T17:22:51;11.30;99.90
19870;DHT22;10097;50.862;4.696;2023-02-13T17:25:36;11.20;99.90
19870;DHT22;10097;50.862;4.696;2023-02-13T17:28:16;11.10;99.90
19870;DHT22;10097;50.862;4.696;2023-02-13T17:30:43;11.00;99.90
19870;DHT22;10097;50.862;4.696;2023-02-13T17:33:21;10.90;99.90
19870;DHT22;10097;50.862;4.696;2023-02-13T17:35:47;10.80;99.90
19870;DHT22;10097;50.862;4.696;2023-02-13T17:38:13;10.70;99.90
19870;DHT22;10097;50.862;4.696;2023-02-13T17:40:40;10.50;99.90
19870;DHT22;10097;50.862;4.696;2023-02-13T17:43:06;10.40;99.90
19870;DHT22;10097;50.862;4.696;2023-02-13T17:45:34;10.40;99.90
19870;DHT22;10097;50.862;4.696;2023-02-13T17:47:59;10.20;99.90
19870;DHT22;10097;50.862;4.696;2023-02-13T17:50:27;10.20;99.90
19870;DHT22;10097;50.862;4.696;2023-02-13T17:52:54;10.10;99.90
19870;DHT22;10097;50.862;4.696;2023-02-13T17:55:22;10.00;99.90
19870;DHT22;10097;50.862;4.696;2023-02-13T17:57:52;9.90;99.90
19870;DHT22;10097;50.862;4.696;2023-02-13T18:00:20;9.90;99.90
19870;DHT22;10097;50.862;4.696;2023-02-13T18:02:46;9.80;99.90
19870;DHT22;10097;50.862;4.696;2023-02-13T18:05:14;9.70;99.90
19870;DHT22;10097;50.862;4.696;2023-02-13T18:07:41;9.60;99.90
19870;DHT22;10097;50.862;4.696;2023-02-13T18:10:10;9.50;99.90
19870;DHT22;10097;50.862;4.696;2023-02-13T18:12:38;9.40;99.90
19870;DHT22;10097;50.862;4.696;2023-02-13T18:15:04;9.30;99.90
19870;DHT22;10097;50.862;4.696;2023-02-13T18:17:30;9.30;99.90
19870;DHT22;10097;50.862;4.696;2023-02-13T18:19:56;9.20;99.90
19870;DHT22;10097;50.862;4.696;2023-02-13T18:22:22;9.10;99.90
19870;DHT22;10097;50.862;4.696;2023-02-13T18:24:48;9.10;99.90
19870;DHT22;10097;50.862;4.696;2023-02-13T18:27:15;9.00;99.90
19870;DHT22;10097;50.862;4.696;2023-02-13T18:29:41;9.00;99.90
19870;DHT22;10097;50.862;4.696;2023-02-13T18:32:08;8.90;99.90
19870;DHT22;10097;50.862;4.696;2023-02-13T18:34:34;8.80;99.90
19870;DHT22;10097;50.862;4.696;2023-02-13T18:37:00;8.80;99.90
19870;DHT22;10097;50.862;4.696;2023-02-13T18:39:26;8.70;99.90
19870;DHT22;10097;50.862;4.696;2023-02-13T18:41:51;8.70;99.90
19870;DHT22;10097;50.862;4.696;2023-02-13T18:44:17;8.60;99.90
19870;DHT22;10097;50.862;4.696;2023-02-13T18:46:43;8.50;99.90
19870;DHT22;10097;50.862;4.696;2023-02-13T18:49:09;8.50;99.90
19870;DHT22;10097;50.862;4.696;2023-02-13T18:51:35;8.40;99.90
19870;DHT22;10097;50.862;4.696;2023-02-13T18:54:01;8.40;99.90
19870;DHT22;10097;50.862;4.696;2023-02-13T18:56:26;8.30;99.90
19870;DHT22;10097;50.862;4.696;2023-02-13T18:58:52;8.30;99.90
19870;DHT22;10097;50.862;4.696;2023-02-13T19:01:19;8.20;99.90
19870;DHT22;10097;50.862;4.696;2023-02-13T19:03:46;8.10;99.90
19870;DHT22;10097;50.862;4.696;2023-02-13T19:06:14;8.10;99.90
19870;DHT22;10097;50.862;4.696;2023-02-13T19:08:40;8.10;99.90
19870;DHT22;10097;50.862;4.696;2023-02-13T19:11:12;8.00;99.90
19870;DHT22;10097;50.862;4.696;2023-02-13T19:13:42;8.00;99.90
19870;DHT22;10097;50.862;4.696;2023-02-13T19:16:10;7.90;99.90
19870;DHT22;10097;50.862;4.696;2023-02-13T19:18:38;7.90;99.90
19870;DHT22;10097;50.862;4.696;2023-02-13T19:21:05;7.80;99.90
19870;DHT22;10097;50.862;4.696;2023-02-13T19:23:31;7.80;99.90